createdAt,value
2019-01-24T00:00:06.652Z,-2.21
2019-01-24T00:01:17.508Z,-2.15
2019-01-24T00:02:27.176Z,-2.06
2019-01-24T00:03:37.097Z,-2.06
2019-01-24T00:04:47.069Z,-2.1
2019-01-24T00:05:56.982Z,-2.06
2019-01-24T00:07:06.649Z,-2.09
2019-01-24T00:08:16.321Z,-2.1
2019-01-24T00:09:26.237Z,-2.23
2019-01-24T00:10:35.944Z,-2.34
2019-01-24T00:11:45.873Z,-2.16
2019-01-24T00:12:55.287Z,-2.12
2019-01-24T00:14:04.699Z,-2.1
2019-01-24T00:15:14.415Z,-2.21
2019-01-24T00:16:24.423Z,-2.21
2019-01-24T00:17:34.174Z,-2.24
2019-01-24T00:18:43.599Z,-2.13
2019-01-24T00:19:53.520Z,-2.1
2019-01-24T00:21:03.427Z,-2.13
2019-01-24T00:22:12.603Z,-2.21
2019-01-24T00:23:22.023Z,-2.18
2019-01-24T00:24:31.693Z,-2.15
2019-01-24T00:25:41.365Z,-2.15
2019-01-24T00:26:50.308Z,-1.98
2019-01-24T00:27:59.483Z,-2.03
2019-01-24T00:29:09.401Z,-2
2019-01-24T00:30:19.348Z,-1.94
2019-01-24T00:31:28.774Z,-2
2019-01-24T00:32:38.195Z,-2
2019-01-24T00:33:47.866Z,-1.97
2019-01-24T00:34:57.529Z,-1.9
2019-01-24T00:36:07.197Z,-1.94
2019-01-24T00:37:16.362Z,-1.92
2019-01-24T00:38:26.035Z,-1.95
2019-01-24T00:39:35.694Z,-1.88
2019-01-24T00:40:44.864Z,-1.9
2019-01-24T00:41:54.538Z,-2
2019-01-24T00:43:03.955Z,-1.92
2019-01-24T00:44:13.636Z,-2
2019-01-24T00:45:23.556Z,-2.08
2019-01-24T00:46:33.482Z,-2.12
2019-01-24T00:47:42.898Z,-2.16
2019-01-24T00:48:52.566Z,-2.12
2019-01-24T00:50:01.496Z,-2
2019-01-24T00:51:11.187Z,-1.97
2019-01-24T00:52:20.353Z,-2.02
2019-01-24T00:53:29.767Z,-2.09
2019-01-24T00:54:39.434Z,-2.15
2019-01-24T00:55:49.149Z,-2.03
2019-01-24T00:56:58.819Z,-2.1
2019-01-24T00:58:08.233Z,-2.12
2019-01-24T00:59:17.896Z,-2.23
2019-01-24T01:00:27.316Z,-2.12
2019-01-24T01:01:38.225Z,-2.06
2019-01-24T01:02:47.940Z,-2.09
2019-01-24T01:03:57.357Z,-2.09
2019-01-24T01:05:07.027Z,-2.03
2019-01-24T01:06:16.698Z,-2.06
2019-01-24T01:07:26.375Z,-1.98
2019-01-24T01:08:35.805Z,-1.92
2019-01-24T01:09:45.727Z,-2.08
2019-01-24T01:10:55.395Z,-2.05
2019-01-24T01:12:05.071Z,-2.13
2019-01-24T01:13:14.984Z,-2.15
2019-01-24T01:14:24.656Z,-2.3
2019-01-24T01:15:35.492Z,-2.34
2019-01-24T01:16:45.208Z,-2.27
2019-01-24T01:17:55.134Z,-2.2
2019-01-24T01:19:05.056Z,-2.27
2019-01-24T01:20:14.770Z,-2.3
2019-01-24T01:21:24.189Z,-2.3
2019-01-24T01:22:33.861Z,-2.29
2019-01-24T01:23:43.282Z,-2.27
2019-01-24T01:24:53.207Z,-2.23
2019-01-24T01:26:02.871Z,-2.35
2019-01-24T01:27:12.543Z,-2.27
2019-01-24T01:28:22.222Z,-2.37
2019-01-24T01:29:31.636Z,-2.27
2019-01-24T01:30:41.314Z,-2.24
2019-01-24T01:31:50.484Z,-2.32
2019-01-24T01:32:59.898Z,-2.3
2019-01-24T01:34:09.822Z,-2.29
2019-01-24T01:35:19.739Z,-2.27
2019-01-24T01:36:29.400Z,-2.27
2019-01-24T01:37:39.322Z,-2.26
2019-01-24T01:38:49.234Z,-2.26
2019-01-24T01:39:58.895Z,-2.3
2019-01-24T01:41:08.814Z,-2.29
2019-01-24T01:42:18.480Z,-2.3
2019-01-24T01:43:27.893Z,-2.24
2019-01-24T01:44:37.561Z,-2.34
2019-01-24T01:45:47.475Z,-2.4
2019-01-24T01:46:57.397Z,-2.29
2019-01-24T01:48:06.817Z,-2.45
2019-01-24T01:49:16.730Z,-2.43
2019-01-24T01:50:26.639Z,-2.4
2019-01-24T01:51:36.056Z,-2.39
2019-01-24T01:52:45.478Z,-2.37
2019-01-24T01:53:54.905Z,-2.39
2019-01-24T01:55:04.328Z,-2.27
2019-01-24T01:56:14.006Z,-2.35
2019-01-24T01:57:23.671Z,-2.15
2019-01-24T01:58:33.594Z,-2.26
2019-01-24T01:59:43.260Z,-2.29
2019-01-24T02:00:52.671Z,-2.26
2019-01-24T02:02:02.089Z,-2.4
2019-01-24T02:03:11.751Z,-2.46
2019-01-24T02:04:21.415Z,-2.48
2019-01-24T02:05:30.877Z,-2.49
2019-01-24T02:06:40.548Z,-2.46
2019-01-24T02:07:50.470Z,-2.48
2019-01-24T02:09:00.133Z,-2.45
2019-01-24T02:10:09.297Z,-2.42
2019-01-24T02:11:19.214Z,-2.4
2019-01-24T02:12:29.124Z,-2.4
2019-01-24T02:13:39.043Z,-2.43
2019-01-24T02:14:48.963Z,-2.43
2019-01-24T02:15:58.628Z,-2.4
2019-01-24T02:17:08.539Z,-2.49
2019-01-24T02:18:18.452Z,-2.53
2019-01-24T02:19:27.914Z,-2.5
2019-01-24T02:20:37.582Z,-2.61
2019-01-24T02:21:47.500Z,-2.66
2019-01-24T02:22:57.174Z,-2.61
2019-01-24T02:24:06.348Z,-2.61
2019-01-24T02:25:16.016Z,-2.5
2019-01-24T02:26:25.430Z,-2.6
2019-01-24T02:27:35.098Z,-2.56
2019-01-24T02:28:44.766Z,-2.46
2019-01-24T02:29:54.432Z,-2.5
2019-01-24T02:31:04.111Z,-2.5
2019-01-24T02:32:14.028Z,-2.52
2019-01-24T02:33:23.693Z,-2.48
2019-01-24T02:34:33.359Z,-2.46
2019-01-24T02:35:43.278Z,-2.48
2019-01-24T02:36:53.191Z,-2.46
2019-01-24T02:38:02.874Z,-2.5
2019-01-24T02:39:12.052Z,-2.63
2019-01-24T02:40:21.713Z,-2.64
2019-01-24T02:41:30.877Z,-2.6
2019-01-24T02:42:40.555Z,-2.64
2019-01-24T02:43:50.499Z,-2.55
2019-01-24T02:44:59.667Z,-2.52
2019-01-24T02:46:09.606Z,-2.56
2019-01-24T02:47:19.541Z,-2.55
2019-01-24T02:48:29.467Z,-2.58
2019-01-24T02:49:38.896Z,-2.63
2019-01-24T02:50:48.564Z,-2.82
2019-01-24T02:51:57.992Z,-2.86
2019-01-24T02:53:07.662Z,-2.92
2019-01-24T02:54:17.342Z,-2.88
2019-01-24T02:55:26.764Z,-3
2019-01-24T02:56:36.717Z,-2.99
2019-01-24T02:57:46.643Z,-2.86
2019-01-24T02:58:56.346Z,-3
2019-01-24T03:00:06.351Z,-3.02
2019-01-24T03:01:15.531Z,-2.86
2019-01-24T03:02:25.450Z,-2.92
2019-01-24T03:03:35.134Z,-2.81
2019-01-24T03:04:44.798Z,-2.92
2019-01-24T03:05:54.483Z,-2.94
2019-01-24T03:07:04.184Z,-3
2019-01-24T03:08:13.846Z,-3.12
2019-01-24T03:09:23.521Z,-3.07
2019-01-24T03:10:33.188Z,-3.1
2019-01-24T03:11:42.851Z,-3.09
2019-01-24T03:12:52.520Z,-3
2019-01-24T03:14:01.941Z,-2.99
2019-01-24T03:15:11.864Z,-3.09
2019-01-24T03:16:21.798Z,-3.02
2019-01-24T03:17:31.473Z,-3.09
2019-01-24T03:18:41.142Z,-3.06
2019-01-24T03:19:50.815Z,-3.12
2019-01-24T03:21:00.232Z,-3.1
2019-01-24T03:22:09.650Z,-3.17
2019-01-24T03:23:19.318Z,-3.02
2019-01-24T03:24:29.247Z,-3.09
2019-01-24T03:25:39.165Z,-3.07
2019-01-24T03:26:49.087Z,-3.14
2019-01-24T03:27:58.501Z,-3.05
2019-01-24T03:29:08.419Z,-3.07
2019-01-24T03:30:18.181Z,-3.07
2019-01-24T03:31:27.876Z,-3.03
2019-01-24T03:32:37.832Z,-3.02
2019-01-24T03:33:47.796Z,-3.07
2019-01-24T03:35:03.896Z,-3.1
2019-01-24T03:36:14.296Z,-3.12
2019-01-24T03:37:23.963Z,-3.07
2019-01-24T03:38:33.387Z,-3.15
2019-01-24T03:39:43.072Z,-3.07
2019-01-24T03:40:52.742Z,-3.18
2019-01-24T03:42:02.680Z,-3.18
2019-01-24T03:43:12.360Z,-3.1
2019-01-24T03:44:22.029Z,-3.07
2019-01-24T03:45:31.716Z,-3.05
2019-01-24T03:46:41.394Z,-3.09
2019-01-24T03:47:50.562Z,-3.06
2019-01-24T03:48:59.985Z,-3.25
2019-01-24T03:50:09.177Z,-3.24
2019-01-24T03:51:18.842Z,-3.46
2019-01-24T03:52:28.258Z,-3.49
2019-01-24T03:53:38.177Z,-3.39
2019-01-24T03:54:47.847Z,-3.48
2019-01-24T03:55:57.519Z,-3.42
2019-01-24T03:57:07.445Z,-3.53
2019-01-24T03:58:17.363Z,-3.42
2019-01-24T03:59:27.322Z,-3.35
2019-01-24T04:00:36.994Z,-3.53
2019-01-24T04:01:46.912Z,-3.52
2019-01-24T04:02:56.386Z,-3.45
2019-01-24T04:04:06.048Z,-3.38
2019-01-24T04:05:16.945Z,-3.41
2019-01-24T04:06:26.361Z,-3.48
2019-01-24T04:07:36.286Z,-3.49
2019-01-24T04:08:45.959Z,-3.52
2019-01-24T04:09:55.630Z,-3.49
2019-01-24T04:11:05.304Z,-3.46
2019-01-24T04:12:14.979Z,-3.42
2019-01-24T04:13:24.907Z,-3.53
2019-01-24T04:14:34.849Z,-3.41
2019-01-24T04:15:44.541Z,-3.36
2019-01-24T04:16:54.223Z,-3.42
2019-01-24T04:18:03.910Z,-3.38
2019-01-24T04:19:13.841Z,-3.48
2019-01-24T04:20:23.264Z,-3.56
2019-01-24T04:21:32.432Z,-3.56
2019-01-24T04:22:41.873Z,-3.39
2019-01-24T04:23:51.550Z,-3.48
2019-01-24T04:25:01.503Z,-3.54
2019-01-24T04:26:11.174Z,-3.57
2019-01-24T04:27:20.592Z,-3.52
2019-01-24T04:28:30.520Z,-3.43
2019-01-24T04:29:39.942Z,-3.49
2019-01-24T04:30:49.648Z,-3.59
2019-01-24T04:31:58.812Z,-3.57
2019-01-24T04:33:08.741Z,-3.67
2019-01-24T04:34:18.411Z,-3.76
2019-01-24T04:35:27.830Z,-3.79
2019-01-24T04:36:37.505Z,-3.62
2019-01-24T04:37:47.433Z,-3.67
2019-01-24T04:38:57.113Z,-3.71
2019-01-24T04:40:06.537Z,-3.85
2019-01-24T04:41:16.454Z,-3.82
2019-01-24T04:42:26.367Z,-3.76
2019-01-24T04:43:35.538Z,-3.69
2019-01-24T04:44:45.455Z,-3.76
2019-01-24T04:45:55.370Z,-3.79
2019-01-24T04:47:05.285Z,-3.78
2019-01-24T04:48:14.956Z,-3.83
2019-01-24T04:49:24.381Z,-3.79
2019-01-24T04:50:33.803Z,-3.71
2019-01-24T04:51:43.482Z,-3.81
2019-01-24T04:52:53.159Z,-3.82
2019-01-24T04:54:02.581Z,-3.96
2019-01-24T04:55:11.509Z,-3.85
2019-01-24T04:56:21.443Z,-3.93
2019-01-24T04:57:31.111Z,-3.91
2019-01-24T04:58:40.578Z,-3.82
2019-01-24T04:59:50.251Z,-3.83
2019-01-24T05:00:59.675Z,-3.72
2019-01-24T05:02:09.092Z,-3.69
2019-01-24T05:03:18.670Z,-3.71
2019-01-24T05:04:27.868Z,-3.78
2019-01-24T05:05:37.542Z,-3.75
2019-01-24T05:06:47.210Z,-3.76
2019-01-24T05:07:57.156Z,-3.75
2019-01-24T05:09:07.075Z,-3.85
2019-01-24T05:10:17.004Z,-3.93
2019-01-24T05:11:26.678Z,-3.96
2019-01-24T05:12:36.124Z,-3.96
2019-01-24T05:13:46.049Z,-3.93
2019-01-24T05:14:55.975Z,-3.99
2019-01-24T05:16:05.910Z,-3.88
2019-01-24T05:17:15.328Z,-3.91
2019-01-24T05:18:24.747Z,-3.86
2019-01-24T05:19:34.666Z,-3.94
2019-01-24T05:20:44.600Z,-4.01
2019-01-24T05:21:54.277Z,-3.85
2019-01-24T05:23:03.698Z,-3.76
2019-01-24T05:24:13.620Z,-3.79
2019-01-24T05:25:23.544Z,-3.9
2019-01-24T05:26:33.220Z,-3.97
2019-01-24T05:27:43.145Z,-3.94
2019-01-24T05:28:52.824Z,-3.97
2019-01-24T05:30:02.590Z,-4
2019-01-24T05:31:12.265Z,-3.96
2019-01-24T05:32:21.935Z,-3.93
2019-01-24T05:33:31.848Z,-3.88
2019-01-24T05:34:41.774Z,-3.9
2019-01-24T05:35:51.438Z,-4.01
2019-01-24T05:37:01.109Z,-3.85
2019-01-24T05:38:10.773Z,-3.86
2019-01-24T05:39:20.706Z,-3.97
2019-01-24T05:40:30.642Z,-3.99
2019-01-24T05:41:40.075Z,-4
2019-01-24T05:42:50.011Z,-3.88
2019-01-24T05:43:59.675Z,-3.99
2019-01-24T05:45:09.092Z,-3.97
2019-01-24T05:46:19.011Z,-4.21
2019-01-24T05:47:28.937Z,-4.17
2019-01-24T05:48:38.612Z,-4.18
2019-01-24T05:49:48.293Z,-4.18
2019-01-24T05:50:57.958Z,-4.28
2019-01-24T05:52:07.950Z,-4.28
2019-01-24T05:53:24.950Z,-4.18
2019-01-24T05:54:34.421Z,-4.18
2019-01-24T05:55:44.097Z,-4.15
2019-01-24T05:56:53.769Z,-4.1
2019-01-24T05:58:03.445Z,-4.15
2019-01-24T05:59:13.366Z,-4.14
2019-01-24T06:00:22.788Z,-4.11
2019-01-24T06:01:32.474Z,-4.06
2019-01-24T06:02:41.944Z,-4.04
2019-01-24T06:03:51.872Z,-4.11
2019-01-24T06:05:01.793Z,-4.28
2019-01-24T06:06:11.213Z,-4.25
2019-01-24T06:07:21.139Z,-4.14
2019-01-24T06:08:31.138Z,-4
2019-01-24T06:09:41.052Z,-4.07
2019-01-24T06:10:50.468Z,-4.21
2019-01-24T06:12:00.149Z,-4.07
2019-01-24T06:13:09.567Z,-4.03
2019-01-24T06:14:19.014Z,-4.12
2019-01-24T06:15:28.429Z,-4.15
2019-01-24T06:16:38.356Z,-4.03
2019-01-24T06:17:48.024Z,-4.01
2019-01-24T06:18:57.688Z,-3.96
2019-01-24T06:20:07.100Z,-3.96
2019-01-24T06:21:16.776Z,-4.06
2019-01-24T06:22:26.206Z,-4.12
2019-01-24T06:23:36.161Z,-4.14
2019-01-24T06:24:46.087Z,-4.1
2019-01-24T06:25:55.756Z,-4.2
2019-01-24T06:27:05.434Z,-4.15
2019-01-24T06:28:15.397Z,-4.1
2019-01-24T06:29:25.061Z,-4.14
2019-01-24T06:30:34.971Z,-4.18
2019-01-24T06:31:44.389Z,-4.17
2019-01-24T06:32:54.052Z,-4.04
2019-01-24T06:34:03.962Z,-3.94
2019-01-24T06:35:13.637Z,-4.03
2019-01-24T06:36:23.058Z,-4.03
2019-01-24T06:37:32.487Z,-4.12
2019-01-24T06:38:42.418Z,-4.35
2019-01-24T06:39:52.258Z,-4.4
2019-01-24T06:41:01.684Z,-4.38
2019-01-24T06:42:11.351Z,-4.47
2019-01-24T06:43:21.017Z,-4.42
2019-01-24T06:44:30.684Z,-4.32
2019-01-24T06:45:40.603Z,-4.35
2019-01-24T06:46:50.023Z,-4.18
2019-01-24T06:47:59.688Z,-4.2
2019-01-24T06:49:09.365Z,-4.18
2019-01-24T06:50:18.787Z,-4.12
2019-01-24T06:51:28.199Z,-4.15
2019-01-24T06:52:37.858Z,-4.18
2019-01-24T06:53:47.820Z,-4.11
2019-01-24T06:54:57.745Z,-4.06
2019-01-24T06:56:07.482Z,-3.93
2019-01-24T06:57:17.151Z,-4
2019-01-24T06:58:26.579Z,-3.96
2019-01-24T06:59:35.995Z,-3.97
2019-01-24T07:00:46.424Z,-4.03
2019-01-24T07:01:56.095Z,-3.94
2019-01-24T07:03:05.766Z,-3.99
2019-01-24T07:04:15.434Z,-3.99
2019-01-24T07:05:24.601Z,-4
2019-01-24T07:06:34.525Z,-3.85
2019-01-24T07:07:43.950Z,-3.85
2019-01-24T07:08:53.616Z,-4.24
2019-01-24T07:10:03.182Z,-4.38
2019-01-24T07:11:12.848Z,-4.4
2019-01-24T07:12:22.016Z,-4.4
2019-01-24T07:13:31.432Z,-4.3
2019-01-24T07:14:41.116Z,-4.2
2019-01-24T07:15:50.775Z,-4.12
2019-01-24T07:16:59.941Z,-4.06
2019-01-24T07:18:09.604Z,-4.07
2019-01-24T07:19:19.019Z,-3.86
2019-01-24T07:20:28.437Z,-3.96
2019-01-24T07:21:38.099Z,-3.88
2019-01-24T07:22:48.036Z,-3.93
2019-01-24T07:23:57.954Z,-3.93
2019-01-24T07:25:07.869Z,-4
2019-01-24T07:26:17.784Z,-3.97
2019-01-24T07:27:27.199Z,-4
2019-01-24T07:28:36.865Z,-4.01
2019-01-24T07:29:46.285Z,-4.06
2019-01-24T07:30:55.945Z,-4.1
2019-01-24T07:32:05.608Z,-4.12
2019-01-24T07:33:15.022Z,-4.06
2019-01-24T07:34:24.457Z,-3.86
2019-01-24T07:35:33.630Z,-3.9
2019-01-24T07:36:42.797Z,-3.91
2019-01-24T07:37:52.464Z,-3.93
2019-01-24T07:39:02.125Z,-3.86
2019-01-24T07:40:11.797Z,-3.82
2019-01-24T07:41:21.478Z,-3.81
2019-01-24T07:42:30.896Z,-3.81
2019-01-24T07:43:40.063Z,-3.66
2019-01-24T07:44:50.012Z,-3.69
2019-01-24T07:45:59.679Z,-3.72
2019-01-24T07:47:09.090Z,-3.69
2019-01-24T07:48:18.755Z,-3.69
2019-01-24T07:49:28.420Z,-3.82
2019-01-24T07:50:38.340Z,-3.72
2019-01-24T07:51:48.251Z,-3.79
2019-01-24T07:52:57.917Z,-3.71
2019-01-24T07:54:07.582Z,-3.72
2019-01-24T07:55:16.746Z,-3.63
2019-01-24T07:56:26.660Z,-3.66
2019-01-24T07:57:36.069Z,-3.75
2019-01-24T07:58:45.739Z,-3.82
2019-01-24T07:59:55.662Z,-3.82
2019-01-24T08:01:05.587Z,-3.91
2019-01-24T08:02:15.258Z,-3.81
2019-01-24T08:03:24.925Z,-3.67
2019-01-24T08:04:34.840Z,-3.62
2019-01-24T08:05:44.764Z,-3.71
2019-01-24T08:06:54.433Z,-3.67
2019-01-24T08:08:03.856Z,-3.66
2019-01-24T08:09:13.803Z,-3.71
2019-01-24T08:10:23.724Z,-3.81
2019-01-24T08:11:33.642Z,-3.75
2019-01-24T08:12:43.066Z,-3.66
2019-01-24T08:13:52.479Z,-3.71
2019-01-24T08:15:01.895Z,-3.71
2019-01-24T08:16:11.560Z,-3.59
2019-01-24T08:17:21.479Z,-3.69
2019-01-24T08:18:31.151Z,-3.72
2019-01-24T08:19:41.067Z,-3.64
2019-01-24T08:20:50.488Z,-3.64
2019-01-24T08:21:59.909Z,-3.75
2019-01-24T08:23:09.579Z,-3.67
2019-01-24T08:24:19.494Z,-3.6
2019-01-24T08:25:29.406Z,-3.57
2019-01-24T08:26:39.335Z,-3.56
2019-01-24T08:27:49.041Z,-3.56
2019-01-24T08:28:58.711Z,-3.52
2019-01-24T08:30:08.127Z,-3.54
2019-01-24T08:31:18.045Z,-3.6
2019-01-24T08:32:27.960Z,-3.67
2019-01-24T08:33:37.623Z,-3.75
2019-01-24T08:34:47.537Z,-3.69
2019-01-24T08:35:56.959Z,-3.69
2019-01-24T08:37:06.626Z,-3.56
2019-01-24T08:38:16.550Z,-3.57
2019-01-24T08:39:26.470Z,-3.56
2019-01-24T08:40:36.391Z,-3.49
2019-01-24T08:41:46.316Z,-3.56
2019-01-24T08:42:56.036Z,-3.49
2019-01-24T08:44:05.708Z,-3.45
2019-01-24T08:45:15.384Z,-3.46
2019-01-24T08:46:25.056Z,-3.46
2019-01-24T08:47:34.224Z,-3.43
2019-01-24T08:48:43.680Z,-3.49
2019-01-24T08:49:53.342Z,-3.33
2019-01-24T08:51:03.254Z,-3.36
2019-01-24T08:52:12.922Z,-3.36
2019-01-24T08:53:22.585Z,-3.33
2019-01-24T08:54:31.523Z,-3.25
2019-01-24T08:55:40.945Z,-3.28
2019-01-24T08:56:50.367Z,-3.23
2019-01-24T08:57:59.784Z,-3.24
2019-01-24T08:59:09.447Z,-3.2
2019-01-24T09:00:19.369Z,-3.21
2019-01-24T09:01:29.039Z,-3.27
2019-01-24T09:02:38.956Z,-3.21
2019-01-24T09:03:48.379Z,-3.24
2019-01-24T09:04:57.546Z,-3.17
2019-01-24T09:06:06.964Z,-3.14
2019-01-24T09:07:16.385Z,-3.06
2019-01-24T09:08:25.809Z,-3.06
2019-01-24T09:09:35.737Z,-3.07
2019-01-24T09:10:45.173Z,-3.1
2019-01-24T09:11:54.374Z,-3.09
2019-01-24T09:13:04.041Z,-3.05
2019-01-24T09:14:13.960Z,-3.06
2019-01-24T09:15:23.378Z,-3.06
2019-01-24T09:16:34.258Z,-3.07
2019-01-24T09:17:44.177Z,-3.09
2019-01-24T09:18:53.844Z,-3.09
2019-01-24T09:20:03.773Z,-3.07
2019-01-24T09:21:13.741Z,-3.09
2019-01-24T09:22:23.408Z,-3.09
2019-01-24T09:23:33.322Z,-3.09
2019-01-24T09:24:42.982Z,-3.05
2019-01-24T09:25:52.655Z,-3.03
2019-01-24T09:27:01.823Z,-2.97
2019-01-24T09:28:17.341Z,-2.89
2019-01-24T09:29:27.265Z,-2.82
2019-01-24T09:30:37.198Z,-2.78
2019-01-24T09:31:46.875Z,-2.89
2019-01-24T09:32:56.851Z,-2.86
2019-01-24T09:34:06.528Z,-2.86
2019-01-24T09:35:16.199Z,-2.84
2019-01-24T09:36:31.686Z,-2.77
2019-01-24T09:37:41.108Z,-2.78
2019-01-24T09:38:50.293Z,-2.78
2019-01-24T09:39:59.960Z,-2.71
2019-01-24T09:41:09.629Z,-2.64
2019-01-24T09:42:19.491Z,-2.49
2019-01-24T09:43:29.153Z,-2.48
2019-01-24T09:44:38.570Z,-2.45
2019-01-24T09:45:47.989Z,-2.5
2019-01-24T09:46:57.656Z,-2.5
2019-01-24T09:48:07.363Z,-2.52
2019-01-24T09:49:17.033Z,-2.35
2019-01-24T09:50:26.700Z,-2.43
2019-01-24T09:51:36.119Z,-2.34
2019-01-24T09:52:45.547Z,-2.37
2019-01-24T09:53:54.969Z,-2.39
2019-01-24T09:55:05.790Z,-2.43
2019-01-24T09:56:14.965Z,-2.45
2019-01-24T09:57:24.882Z,-2.53
2019-01-24T09:58:34.565Z,-2.49
2019-01-24T09:59:43.990Z,-2.49
2019-01-24T10:00:53.661Z,-2.43
2019-01-24T10:02:03.327Z,-2.39
2019-01-24T10:03:12.746Z,-2.43
2019-01-24T10:04:22.410Z,-2.46
2019-01-24T10:05:32.102Z,-2.46
2019-01-24T10:06:42.016Z,-2.37
2019-01-24T10:07:51.704Z,-2.29
2019-01-24T10:09:01.401Z,-2.29
2019-01-24T10:10:10.830Z,-2.23
2019-01-24T10:11:25.927Z,-2.09
2019-01-24T10:12:35.846Z,-2.15
2019-01-24T10:13:45.513Z,-2.18
2019-01-24T10:14:55.180Z,-2.24
2019-01-24T10:16:05.109Z,-2.23
2019-01-24T10:17:14.804Z,-2.26
2019-01-24T10:18:26.296Z,-2.16
2019-01-24T10:19:35.972Z,-2.21
2019-01-24T10:20:45.645Z,-2.12
2019-01-24T10:21:55.341Z,-1.98
2019-01-24T10:23:05.264Z,-1.95
2019-01-24T10:24:14.678Z,-1.97
2019-01-24T10:25:24.111Z,-1.9
2019-01-24T10:26:34.046Z,-1.9
2019-01-24T10:27:43.467Z,-1.92
2019-01-24T10:28:53.139Z,-1.87
2019-01-24T10:30:02.844Z,-1.98
2019-01-24T10:31:12.522Z,-1.94
2019-01-24T10:32:22.195Z,-2.03
2019-01-24T10:33:32.114Z,-2.09
2019-01-24T10:34:42.038Z,-2.02
2019-01-24T10:35:51.983Z,-2
2019-01-24T10:37:01.419Z,-1.97
2019-01-24T10:38:11.092Z,-2.05
2019-01-24T10:39:20.523Z,-2.13
2019-01-24T10:40:29.988Z,-2.03
2019-01-24T10:41:39.914Z,-1.98
2019-01-24T10:42:49.336Z,-1.95
2019-01-24T10:43:58.756Z,-1.94
2019-01-24T10:45:08.177Z,-1.95
2019-01-24T10:46:17.351Z,-1.82
2019-01-24T10:47:27.308Z,-1.95
2019-01-24T10:48:36.729Z,-1.91
2019-01-24T10:49:46.158Z,-1.98
2019-01-24T10:50:55.830Z,-1.88
2019-01-24T10:52:05.751Z,-1.92
2019-01-24T10:53:14.918Z,-1.85
2019-01-24T10:54:24.336Z,-1.97
2019-01-24T10:55:34.263Z,-1.92
2019-01-24T10:56:43.936Z,-1.94
2019-01-24T10:57:53.359Z,-1.97
2019-01-24T10:59:03.037Z,-1.85
2019-01-24T11:00:12.707Z,-1.91
2019-01-24T11:01:22.633Z,-1.87
2019-01-24T11:02:32.571Z,-1.8
2019-01-24T11:03:42.264Z,-1.77
2019-01-24T11:04:51.679Z,-1.72
2019-01-24T11:06:01.369Z,-1.66
2019-01-24T11:07:11.287Z,-1.56
2019-01-24T11:08:20.962Z,-1.59
2019-01-24T11:09:30.878Z,-1.54
2019-01-24T11:10:40.542Z,-1.64
2019-01-24T11:11:49.976Z,-1.61
2019-01-24T11:12:59.645Z,-1.66
2019-01-24T11:14:09.566Z,-1.84
2019-01-24T11:15:19.497Z,-1.82
2019-01-24T11:16:29.231Z,-1.84
2019-01-24T11:17:38.903Z,-1.79
2019-01-24T11:18:48.572Z,-1.94
2019-01-24T11:19:57.744Z,-2.03
2019-01-24T11:21:07.258Z,-2.08
2019-01-24T11:22:16.948Z,-1.95
2019-01-24T11:23:26.616Z,-1.82
2019-01-24T11:24:36.532Z,-1.8
2019-01-24T11:25:45.949Z,-1.8
2019-01-24T11:26:55.366Z,-1.7
2019-01-24T11:28:05.034Z,-1.61
2019-01-24T11:29:14.712Z,-1.51
2019-01-24T11:30:24.648Z,-1.54
2019-01-24T11:31:34.074Z,-1.49
2019-01-24T11:32:43.496Z,-1.52
2019-01-24T11:33:52.915Z,-1.51
2019-01-24T11:35:02.085Z,-1.49
2019-01-24T11:36:11.384Z,-1.62
2019-01-24T11:37:21.306Z,-1.66
2019-01-24T11:38:30.723Z,-1.66
2019-01-24T11:39:40.393Z,-1.64
2019-01-24T11:40:50.315Z,-1.55
2019-01-24T11:41:59.238Z,-1.52
2019-01-24T11:43:08.917Z,-1.41
2019-01-24T11:44:17.839Z,-1.43
2019-01-24T11:45:27.764Z,-1.4
2019-01-24T11:46:37.438Z,-1.4
2019-01-24T11:47:47.358Z,-1.27
2019-01-24T11:48:56.534Z,-1.22
2019-01-24T11:50:05.970Z,-1.27
2019-01-24T11:51:15.390Z,-1.34
2019-01-24T11:52:24.808Z,-1.51
2019-01-24T11:53:34.733Z,-1.4
2019-01-24T11:54:44.506Z,-1.34
2019-01-24T11:55:54.178Z,-1.49
2019-01-24T11:57:03.411Z,-1.48
2019-01-24T11:58:13.342Z,-1.38
2019-01-24T11:59:23.265Z,-1.4
2019-01-24T12:00:32.935Z,-1.2
2019-01-24T12:01:42.856Z,-1.25
2019-01-24T12:02:52.537Z,-1.23
2019-01-24T12:04:01.951Z,-1.27
2019-01-24T12:05:11.365Z,-1.2
2019-01-24T12:06:21.284Z,-1.28
2019-01-24T12:07:31.063Z,-1.31
2019-01-24T12:08:40.486Z,-1.23
2019-01-24T12:09:49.904Z,-1.22
2019-01-24T12:10:59.899Z,-1.34
2019-01-24T12:12:09.575Z,-1.23
2019-01-24T12:13:18.996Z,-1.17
2019-01-24T12:14:28.917Z,-1.05
2019-01-24T12:15:38.116Z,-1.04
2019-01-24T12:16:47.782Z,-1.13
2019-01-24T12:17:57.471Z,-1.17
2019-01-24T12:19:07.145Z,-1.16
2019-01-24T12:20:16.817Z,-1.23
2019-01-24T12:21:26.487Z,-1.31
2019-01-24T12:22:36.168Z,-1.23
2019-01-24T12:23:45.838Z,-1.16
2019-01-24T12:24:55.506Z,-1.16
2019-01-24T12:26:05.434Z,-1.12
2019-01-24T12:27:15.103Z,-1.1
2019-01-24T12:28:25.027Z,-1.07
2019-01-24T12:29:34.449Z,-0.99
2019-01-24T12:30:43.881Z,-1.09
2019-01-24T12:31:53.551Z,-1.02
2019-01-24T12:33:03.237Z,-1.13
2019-01-24T12:34:12.913Z,-1.13
2019-01-24T12:35:22.080Z,-1.15
2019-01-24T12:36:32.007Z,-1.2
2019-01-24T12:37:41.714Z,-1.2
2019-01-24T12:38:51.127Z,-1.2
2019-01-24T12:40:00.550Z,-1.16
2019-01-24T12:41:09.966Z,-1.1
2019-01-24T12:42:19.910Z,-1.1
2019-01-24T12:43:29.086Z,-1.12
2019-01-24T12:44:38.510Z,-1.09
2019-01-24T12:45:48.227Z,-1.02
2019-01-24T12:46:57.401Z,-1.07
2019-01-24T12:48:07.073Z,-1.1
2019-01-24T12:49:16.745Z,-1.09
2019-01-24T12:50:26.179Z,-1.02
2019-01-24T12:51:35.853Z,-1.1
2019-01-24T12:52:46.017Z,-0.92
2019-01-24T12:53:55.697Z,-1.01
2019-01-24T12:55:05.716Z,-0.94
2019-01-24T12:56:15.633Z,-0.99
2019-01-24T12:57:25.561Z,-1.05
2019-01-24T12:58:35.482Z,-1.07
2019-01-24T12:59:45.194Z,-1.12
2019-01-24T13:00:55.118Z,-1.04
2019-01-24T13:02:05.070Z,-0.99
2019-01-24T13:03:14.988Z,-1.02
2019-01-24T13:04:24.660Z,-0.97
2019-01-24T13:05:34.329Z,-0.95
2019-01-24T13:06:43.753Z,-1.02
2019-01-24T13:07:53.181Z,-0.91
2019-01-24T13:09:03.100Z,-0.95
2019-01-24T13:10:12.775Z,-1.01
2019-01-24T13:11:22.190Z,-0.99
2019-01-24T13:12:31.860Z,-0.99
2019-01-24T13:13:41.526Z,-1.01
2019-01-24T13:14:51.446Z,-1.09
2019-01-24T13:16:01.372Z,-1.01
2019-01-24T13:17:11.040Z,-1.09
2019-01-24T13:18:20.219Z,-1.01
2019-01-24T13:19:29.669Z,-1.12
2019-01-24T13:20:39.343Z,-1.19
2019-01-24T13:21:49.018Z,-1.25
2019-01-24T13:22:58.442Z,-1.25
2019-01-24T13:24:08.377Z,-1.13
2019-01-24T13:25:18.307Z,-1.15
2019-01-24T13:26:27.729Z,-0.98
2019-01-24T13:27:37.396Z,-1.01
2019-01-24T13:28:47.075Z,-0.86
2019-01-24T13:29:56.757Z,-0.83
2019-01-24T13:31:06.442Z,-0.83
2019-01-24T13:32:16.357Z,-0.83
2019-01-24T13:33:26.275Z,-0.95
2019-01-24T13:34:36.199Z,-0.99
2019-01-24T13:35:45.631Z,-0.94
2019-01-24T13:36:55.047Z,-0.98
2019-01-24T13:38:04.724Z,-0.94
2019-01-24T13:39:14.436Z,-0.95
2019-01-24T13:40:24.123Z,-0.94
2019-01-24T13:41:33.295Z,-0.99
2019-01-24T13:42:49.662Z,-0.97
2019-01-24T13:43:59.580Z,-0.97
2019-01-24T13:45:09.253Z,-0.99
2019-01-24T13:46:19.182Z,-0.98
2019-01-24T13:47:28.862Z,-0.89
2019-01-24T13:48:38.784Z,-0.85
2019-01-24T13:49:48.205Z,-0.82
2019-01-24T13:52:20.516Z,-0.79
2019-01-24T13:53:29.935Z,-0.73
2019-01-24T13:54:39.655Z,-0.67
2019-01-24T13:55:49.076Z,-0.62
2019-01-24T13:56:58.746Z,-0.78
2019-01-24T13:58:08.673Z,-0.85
2019-01-24T13:59:17.839Z,-0.75
2019-01-24T14:00:27.517Z,-0.86
2019-01-24T14:01:36.935Z,-1.01
2019-01-24T14:02:46.610Z,-0.89
2019-01-24T14:03:56.088Z,-0.83
2019-01-24T14:05:05.764Z,-0.75
2019-01-24T14:06:15.687Z,-0.91
2019-01-24T14:07:25.603Z,-0.89
2019-01-24T14:08:40.372Z,-0.82
2019-01-24T14:09:50.049Z,-0.91
2019-01-24T14:11:00.526Z,-0.91
2019-01-24T14:12:09.956Z,-0.82
2019-01-24T14:13:19.373Z,-0.75
2019-01-24T14:14:29.304Z,-0.8
2019-01-24T14:15:39.255Z,-0.72
2019-01-24T14:16:48.934Z,-0.82
2019-01-24T14:17:58.608Z,-0.78
2019-01-24T14:19:08.274Z,-0.82
2019-01-24T14:20:17.938Z,-0.98
2019-01-24T14:21:27.608Z,-0.78
2019-01-24T14:22:37.284Z,-0.82
2019-01-24T14:23:46.455Z,-0.85
2019-01-24T14:24:56.375Z,-0.8
2019-01-24T14:26:05.808Z,-0.83
2019-01-24T14:27:15.719Z,-0.75
2019-01-24T14:28:25.147Z,-0.82
2019-01-24T14:29:34.567Z,-0.65
2019-01-24T14:30:44.484Z,-0.79
2019-01-24T14:31:54.156Z,-0.65
2019-01-24T14:33:04.081Z,-0.72
2019-01-24T14:34:13.570Z,-0.73
2019-01-24T14:35:23.235Z,-0.76
2019-01-24T14:36:32.938Z,-0.86
2019-01-24T14:37:44.484Z,-0.76
2019-01-24T14:38:53.905Z,-0.8
2019-01-24T14:40:03.575Z,-0.85
2019-01-24T14:41:12.750Z,-0.82
2019-01-24T14:42:22.425Z,-0.69
2019-01-24T14:43:31.848Z,-0.62
2019-01-24T14:44:41.264Z,-0.65
2019-01-24T14:45:50.449Z,-0.83
2019-01-24T14:46:59.862Z,-0.82
2019-01-24T14:48:09.538Z,-0.83
2019-01-24T14:49:19.751Z,-0.75
2019-01-24T14:50:29.275Z,-0.73
2019-01-24T14:51:39.194Z,-0.72
2019-01-24T14:52:48.614Z,-0.7
2019-01-24T14:53:57.790Z,-0.86
2019-01-24T14:55:07.214Z,-0.85
2019-01-24T14:56:16.877Z,-0.85
2019-01-24T14:57:26.070Z,-0.83
2019-01-24T14:58:35.757Z,-0.7
2019-01-24T14:59:45.173Z,-0.75
2019-01-24T15:00:54.588Z,-0.82
2019-01-24T15:02:04.259Z,-0.85
2019-01-24T15:03:13.680Z,-0.99